Estación Meteorológica Peña el Pijo (Robertgarden) [ 10/21/18 13:50:38 CEST ]

Fecha Hora Presion(HPa) Temp (°C) Humedad % Rocio (°C) Viento ( m/s) Direccion Lluvia 1Hora(mm) Lluvia 24H(mm) LLuvia Total(mm)
2017-Dec-30 01:01:50 1016.900 8.4 80 5.2         27.97
2017-Dec-30 02:08:24 1016.400 9.1 81 5.8         27.97
2017-Dec-30 03:02:17 1016.200 8.5 80 5.2         27.97
2017-Dec-30 04:02:13 1016.100 7.7 81 4.7         27.97
2017-Dec-30 05:01:58 1015.700 6.9 82 4.0         27.97
2017-Dec-30 06:02:25 1015.800 5.8 83 3.1         27.97
2017-Dec-30 07:01:38 1015.900 6.3 84 3.8         27.97
2017-Dec-30 08:01:44 1016.100 4.5 85 2.2         27.97
2017-Dec-30 09:01:34 1016.200 5.8 85 3.4         27.97
2017-Dec-30 10:01:46 1017.000 9.2 86 7.0         27.97
2017-Dec-30 11:01:55 1017.100 15.1 66 8.8         27.97
2017-Dec-30 12:01:27 1017.000 17.6 52 7.6         27.97
2017-Dec-30 13:01:44 1016.200 18.9 43 6.0         27.97
2017-Dec-30 14:01:38 1015.600 21.3 30 3.1         27.97
2017-Dec-30 15:01:35 1015.400 21.2 29 2.4         27.97
2017-Dec-30 16:01:38 1015.200 20.4 27 0.6 0.5 WSW     27.97
2017-Dec-30 17:01:30 1015.100 17.3 29 -1.0         27.97
2017-Dec-30 18:01:33 1015.800 13.2 39 -0.5         27.97
2017-Dec-30 19:01:35 1016.100 10.1 48 -0.4         27.97
2017-Dec-30 20:01:45 1016.300 8.1 53 -1.0         27.97
2017-Dec-30 21:01:53 1016.700 6.8 57 -1.1         27.97
2017-Dec-30 22:01:58 1016.700 5.1 61 -1.8         27.97
2017-Dec-30 23:01:49 1016.700 4.4 65 -1.6         27.97

Temperatura Máxima:21°    Temperatura Mínima:
Presión Máxima:1017.100 Hpa    Presión Mínima:1015.100 Hpa


Volver